Time;durP1;ratioP1;P1;durP2;ratioP2;P2;SDS_P1;SDS_P2;PMS_P1;PMS_P2;Temp;Humidity;BMP_temperature;BMP_pressure;BME280_temperature;BME280_humidity;BME280_pressure;Samples;Min_cycle;Max_cycle;Signal;HPM_P1;HPM_P2
2022/01/09 00:01:41;;;;;;;0.60;0.60;;;5.70;99.90;;;;;;4955890;28;20219;-84
2022/01/09 00:04:07;;;;;;;0.67;0.67;;;5.80;99.90;;;;;;4966286;29;20232;-85
2022/01/09 00:06:32;;;;;;;0.70;0.70;;;5.80;99.90;;;;;;4964372;29;20196;-86
2022/01/09 00:08:59;;;;;;;0.60;0.60;;;5.90;99.90;;;;;;4961280;29;20202;-85
2022/01/09 00:11:27;;;;;;;0.83;0.80;;;5.90;99.90;;;;;;4959050;28;20259;-85
2022/01/09 00:13:57;;;;;;;0.57;0.57;;;5.90;99.90;;;;;;4979694;28;20232;-85
2022/01/09 00:16:24;;;;;;;1.07;0.67;;;5.90;99.90;;;;;;4960850;29;20287;-85
2022/01/09 00:18:50;;;;;;;0.70;0.70;;;5.90;99.90;;;;;;4963390;29;20262;-85
2022/01/09 00:21:17;;;;;;;0.73;0.70;;;5.90;99.90;;;;;;4960870;28;20208;-84
2022/01/09 00:23:45;;;;;;;0.90;0.90;;;6.00;99.90;;;;;;4965451;29;20772;-84
2022/01/09 00:26:11;;;;;;;0.43;0.43;;;6.10;99.90;;;;;;4966147;28;20653;-86
2022/01/09 00:28:37;;;;;;;0.77;0.77;;;6.00;99.90;;;;;;4966467;29;20238;-85
2022/01/09 00:31:03;;;;;;;0.50;0.50;;;6.00;99.90;;;;;;4964988;28;20208;-85
2022/01/09 00:33:29;;;;;;;0.60;0.60;;;6.10;99.90;;;;;;4963155;29;20196;-85
2022/01/09 00:35:55;;;;;;;0.60;0.60;;;6.00;99.90;;;;;;4964525;28;20195;-85
2022/01/09 00:38:21;;;;;;;0.77;0.77;;;6.00;99.90;;;;;;4959231;28;20191;-84
2022/01/09 00:40:47;;;;;;;0.50;0.50;;;6.00;99.90;;;;;;4964247;28;20210;-85
2022/01/09 00:43:13;;;;;;;1.70;0.47;;;6.00;99.90;;;;;;4966466;28;20187;-85
2022/01/09 00:45:40;;;;;;;0.60;0.60;;;6.00;99.90;;;;;;4969077;28;20318;-85
2022/01/09 00:48:07;;;;;;;0.70;0.70;;;6.10;99.90;;;;;;4962804;28;20195;-84
2022/01/09 00:50:36;;;;;;;0.73;0.73;;;6.20;99.90;;;;;;4963754;29;20255;-85
2022/01/09 00:53:03;;;;;;;0.70;0.70;;;6.20;99.90;;;;;;4965006;29;20769;-87
2022/01/09 00:55:28;;;;;;;0.50;0.50;;;6.30;99.90;;;;;;4964580;28;20200;-85
2022/01/09 00:57:54;;;;;;;1.43;0.43;;;6.30;99.90;;;;;;4963257;29;20195;-85
2022/01/09 01:00:20;;;;;;;0.60;0.60;;;6.40;99.90;;;;;;4965467;28;20691;-85
2022/01/09 01:02:46;;;;;;;0.53;0.53;;;6.50;99.90;;;;;;4967060;28;20215;-85
2022/01/09 01:05:12;;;;;;;0.47;0.40;;;6.60;99.90;;;;;;4977265;23;20326;-89
2022/01/09 01:07:38;;;;;;;0.40;0.40;;;6.60;99.90;;;;;;4962980;28;20287;-88
2022/01/09 01:10:04;;;;;;;0.30;0.30;;;6.60;99.90;;;;;;4969788;28;20624;-88
2022/01/09 01:12:31;;;;;;;0.40;0.40;;;6.60;99.90;;;;;;4953313;28;20196;-88
2022/01/09 01:14:57;;;;;;;0.50;0.50;;;6.60;99.90;;;;;;4949295;28;20207;-89
2022/01/09 01:17:23;;;;;;;0.40;0.40;;;6.60;99.90;;;;;;4947770;28;20188;-89
2022/01/09 01:19:50;;;;;;;0.50;0.50;;;6.70;99.90;;;;;;4949155;28;20227;-88
2022/01/09 01:22:16;;;;;;;0.50;0.50;;;6.60;99.90;;;;;;4949220;28;20614;-89
2022/01/09 01:24:42;;;;;;;0.50;0.50;;;6.60;99.90;;;;;;4951120;28;20234;-89
2022/01/09 01:27:09;;;;;;;0.40;0.40;;;6.60;99.90;;;;;;4950113;28;20203;-89
2022/01/09 01:29:36;;;;;;;0.90;0.90;;;6.60;99.90;;;;;;4950044;28;20191;-89
2022/01/09 01:32:02;;;;;;;0.60;0.60;;;6.60;99.90;;;;;;4961947;29;20220;-88
2022/01/09 01:34:27;;;;;;;0.60;0.60;;;6.50;99.90;;;;;;4953930;28;20270;-89
2022/01/09 01:36:53;;;;;;;0.70;0.70;;;6.50;99.90;;;;;;4951458;28;20195;-89
2022/01/09 01:39:19;;;;;;;1.30;0.60;;;6.40;99.90;;;;;;4949644;28;20247;-87
2022/01/09 01:41:45;;;;;;;1.30;0.73;;;6.50;99.90;;;;;;4951339;28;20287;-89
2022/01/09 01:44:12;;;;;;;0.60;0.60;;;6.50;99.90;;;;;;4955511;28;20246;-89
2022/01/09 01:46:39;;;;;;;0.63;0.63;;;6.40;99.90;;;;;;4957927;28;20310;-89
2022/01/09 01:49:06;;;;;;;0.43;0.43;;;6.40;99.90;;;;;;4942524;28;20185;-89
2022/01/09 01:51:34;;;;;;;2.43;0.70;;;6.50;99.90;;;;;;4951834;28;20283;-89
2022/01/09 01:54:01;;;;;;;0.60;0.60;;;6.40;99.90;;;;;;4952608;28;20278;-89
2022/01/09 01:56:27;;;;;;;0.53;0.53;;;6.40;99.90;;;;;;4943732;29;21185;-89
2022/01/09 01:58:53;;;;;;;0.80;0.80;;;6.50;99.90;;;;;;4946061;28;20757;-89
2022/01/09 02:01:19;;;;;;;1.40;0.90;;;6.50;99.90;;;;;;4949421;28;20196;-89
2022/01/09 02:03:45;;;;;;;0.83;0.83;;;6.60;99.90;;;;;;4943877;28;20238;-89
2022/01/09 02:06:14;;;;;;;0.60;0.60;;;6.60;99.90;;;;;;4954070;28;20215;-89
2022/01/09 02:08:41;;;;;;;0.80;0.80;;;6.70;99.90;;;;;;4950787;28;20191;-89
2022/01/09 02:11:07;;;;;;;0.77;0.60;;;6.60;99.90;;;;;;4946346;28;20188;-89
2022/01/09 02:13:33;;;;;;;0.87;0.87;;;6.60;99.90;;;;;;4946767;28;20279;-89
2022/01/09 02:16:00;;;;;;;1.30;0.77;;;6.60;99.90;;;;;;4946405;28;20200;-89
2022/01/09 02:18:26;;;;;;;0.73;0.50;;;6.60;99.90;;;;;;4949499;28;20271;-89
2022/01/09 02:20:52;;;;;;;0.70;0.70;;;6.60;99.90;;;;;;4938214;29;20283;-89
2022/01/09 02:23:19;;;;;;;0.57;0.57;;;6.60;99.90;;;;;;4949660;28;20230;-89
2022/01/09 02:25:47;;;;;;;0.80;0.73;;;6.60;99.90;;;;;;4949199;28;20226;-87
2022/01/09 02:28:14;;;;;;;0.50;0.50;;;6.60;99.90;;;;;;4947128;28;20191;-87
2022/01/09 02:30:41;;;;;;;1.63;0.70;;;6.50;99.90;;;;;;4945642;28;20274;-87
2022/01/09 02:33:10;;;;;;;0.60;0.60;;;6.60;99.90;;;;;;4951937;28;20274;-87
2022/01/09 02:35:37;;;;;;;0.70;0.70;;;6.50;99.90;;;;;;4952304;28;20215;-87
2022/01/09 02:38:04;;;;;;;0.87;0.80;;;6.60;99.90;;;;;;4946803;28;20188;-87
2022/01/09 02:40:30;;;;;;;1.00;0.93;;;6.50;99.90;;;;;;4950948;28;20576;-87
2022/01/09 02:42:56;;;;;;;0.83;0.70;;;6.40;99.90;;;;;;4952261;28;20236;-87
2022/01/09 02:45:25;;;;;;;0.53;0.53;;;6.50;99.90;;;;;;4942860;28;20243;-87
2022/01/09 02:47:53;;;;;;;1.10;0.80;;;6.50;99.90;;;;;;4950022;28;20188;-87
2022/01/09 02:52:54;;;;;;;1.00;0.70;;;6.40;99.90;;;;;;4941873;28;20199;-87
2022/01/09 02:55:21;;;;;;;0.73;0.73;;;6.40;99.90;;;;;;4949877;28;20283;-87
2022/01/09 02:57:54;;;;;;;0.47;0.47;;;6.30;99.90;;;;;;4947633;28;20196;-87
2022/01/09 03:00:25;;;;;;;0.60;0.60;;;6.30;99.90;;;;;;4953342;28;20205;-87
2022/01/09 03:02:52;;;;;;;1.27;0.77;;;6.20;99.90;;;;;;4946054;29;20192;-87
2022/01/09 03:05:18;;;;;;;0.60;0.60;;;6.20;99.90;;;;;;4951636;28;20223;-87
2022/01/09 03:07:44;;;;;;;0.60;0.60;;;6.20;99.90;;;;;;4949997;28;20235;-87
2022/01/09 03:10:12;;;;;;;0.60;0.60;;;6.30;99.90;;;;;;4943591;29;20691;-87
2022/01/09 03:12:38;;;;;;;0.80;0.80;;;6.20;99.90;;;;;;4945957;28;20198;-88
2022/01/09 03:15:06;;;;;;;0.67;0.60;;;6.20;99.90;;;;;;4947823;28;20305;-87
2022/01/09 03:17:32;;;;;;;0.43;0.43;;;6.20;99.90;;;;;;4942209;28;20641;-88
2022/01/09 03:19:58;;;;;;;0.87;0.80;;;6.10;99.90;;;;;;4945644;28;20197;-88
2022/01/09 03:22:24;;;;;;;0.77;0.77;;;6.10;99.90;;;;;;4952845;28;20331;-88
2022/01/09 03:24:49;;;;;;;0.70;0.70;;;6.00;99.90;;;;;;4952478;28;20223;-88
2022/01/09 03:27:16;;;;;;;0.90;0.80;;;6.10;99.90;;;;;;4947624;28;20199;-88
2022/01/09 03:29:42;;;;;;;0.70;0.60;;;6.10;99.90;;;;;;4948244;28;20200;-88
2022/01/09 03:32:08;;;;;;;1.50;0.83;;;6.00;99.90;;;;;;4947865;28;20232;-88
2022/01/09 03:34:34;;;;;;;1.90;0.80;;;6.00;99.90;;;;;;4946548;28;20218;-88
2022/01/09 03:37:00;;;;;;;1.27;0.50;;;6.00;99.90;;;;;;4951541;28;20663;-87
2022/01/09 03:39:26;;;;;;;0.57;0.57;;;5.90;99.90;;;;;;4950904;28;20203;-87
2022/01/09 03:41:54;;;;;;;0.57;0.57;;;5.80;99.90;;;;;;4944780;28;20196;-88
2022/01/09 03:44:20;;;;;;;0.77;0.67;;;5.80;99.90;;;;;;4945487;28;20235;-87
2022/01/09 03:46:46;;;;;;;0.37;0.37;;;5.80;99.90;;;;;;4946578;28;20200;-88
2022/01/09 03:49:12;;;;;;;0.50;0.50;;;5.70;99.90;;;;;;4948187;28;20192;-87
2022/01/09 03:51:38;;;;;;;0.47;0.47;;;5.70;99.90;;;;;;4946095;28;20200;-87
2022/01/09 03:54:06;;;;;;;0.40;0.40;;;5.70;99.90;;;;;;4933528;29;20909;-87
2022/01/09 03:56:33;;;;;;;0.40;0.40;;;5.60;99.90;;;;;;4949799;28;20843;-88
2022/01/09 03:58:59;;;;;;;0.40;0.40;;;5.70;99.90;;;;;;4947586;28;20291;-87
2022/01/09 04:01:25;;;;;;;0.63;0.63;;;5.70;99.90;;;;;;4948414;28;20204;-87
2022/01/09 04:03:51;;;;;;;0.30;0.30;;;5.60;99.90;;;;;;4948045;28;20226;-87
2022/01/09 04:06:17;;;;;;;0.40;0.40;;;5.60;99.90;;;;;;4944035;28;20219;-88
2022/01/09 04:08:43;;;;;;;0.90;0.60;;;5.60;99.90;;;;;;4953257;28;20318;-87
2022/01/09 04:11:10;;;;;;;0.50;0.50;;;5.60;99.90;;;;;;4950418;28;20220;-87
2022/01/09 04:13:39;;;;;;;0.50;0.50;;;5.60;99.90;;;;;;4946801;28;20825;-87
2022/01/09 04:16:05;;;;;;;0.40;0.40;;;5.50;99.90;;;;;;4951734;28;20192;-87
2022/01/09 04:18:31;;;;;;;0.73;0.60;;;5.50;99.90;;;;;;4949351;28;20251;-87
2022/01/09 04:20:58;;;;;;;0.30;0.27;;;5.50;99.90;;;;;;4949136;28;20191;-87
2022/01/09 04:23:24;;;;;;;0.33;0.33;;;5.50;99.90;;;;;;4954434;28;20445;-90
2022/01/09 04:25:51;;;;;;;1.33;0.50;;;5.30;99.90;;;;;;4967980;28;20235;-89
2022/01/09 04:28:17;;;;;;;0.67;0.40;;;5.30;99.90;;;;;;4950127;28;20248;-87
2022/01/09 04:30:43;;;;;;;0.67;0.30;;;5.20;99.90;;;;;;4946900;28;20203;-87
2022/01/09 04:33:10;;;;;;;0.40;0.40;;;5.20;99.90;;;;;;4947206;28;20215;-87
2022/01/09 04:35:36;;;;;;;0.30;0.30;;;5.10;99.90;;;;;;4947991;28;20207;-87
2022/01/09 04:38:03;;;;;;;0.37;0.37;;;4.90;99.90;;;;;;4951196;28;20307;-87
2022/01/09 04:40:29;;;;;;;0.30;0.30;;;4.80;99.90;;;;;;4953017;28;20281;-88
2022/01/09 04:42:58;;;;;;;0.67;0.50;;;4.70;99.90;;;;;;4948908;28;20200;-88
2022/01/09 04:45:26;;;;;;;1.03;0.40;;;4.60;99.90;;;;;;4965541;28;20227;-88
2022/01/09 04:47:53;;;;;;;0.30;0.30;;;4.50;99.90;;;;;;4949291;28;20187;-87
2022/01/09 04:50:24;;;;;;;0.10;0.10;;;4.40;99.90;;;;;;4944666;28;20203;-88
2022/01/09 04:52:53;;;;;;;0.10;0.10;;;4.40;99.90;;;;;;4951698;28;20234;-88
2022/01/09 04:55:19;;;;;;;0.30;0.30;;;4.30;99.90;;;;;;4945170;29;20246;-88
2022/01/09 04:57:45;;;;;;;0.30;0.20;;;4.30;99.90;;;;;;4943850;28;20230;-89
2022/01/09 05:00:11;;;;;;;0.27;0.27;;;4.30;99.90;;;;;;4938057;28;20782;-88
2022/01/09 05:02:37;;;;;;;0.20;0.20;;;4.30;99.90;;;;;;4952092;28;20203;-89
2022/01/09 05:05:05;;;;;;;0.27;0.27;;;4.30;99.90;;;;;;4945818;28;20239;-88
2022/01/09 05:07:31;;;;;;;0.37;0.37;;;4.30;99.90;;;;;;4948418;28;20202;-88
2022/01/09 05:09:57;;;;;;;0.37;0.37;;;4.30;99.90;;;;;;4950281;28;20282;-88
2022/01/09 05:12:23;;;;;;;0.10;0.10;;;4.30;99.90;;;;;;4942576;29;20192;-88
2022/01/09 05:14:48;;;;;;;0.30;0.30;;;4.20;99.90;;;;;;4948189;28;20232;-87
2022/01/09 05:17:14;;;;;;;0.10;0.10;;;4.30;99.90;;;;;;4951179;28;20231;-87
2022/01/09 05:19:41;;;;;;;0.93;0.50;;;4.20;99.90;;;;;;4930639;28;20202;-87
2022/01/09 05:22:08;;;;;;;0.20;0.20;;;4.20;99.90;;;;;;4952196;28;20211;-87
2022/01/09 05:24:37;;;;;;;0.50;0.50;;;4.20;99.90;;;;;;4950701;28;20310;-87
2022/01/09 05:27:03;;;;;;;0.40;0.40;;;4.20;99.90;;;;;;4949152;28;20278;-87
2022/01/09 05:29:29;;;;;;;0.57;0.57;;;4.20;99.90;;;;;;4943598;28;20192;-88
2022/01/09 05:31:55;;;;;;;0.53;0.53;;;4.20;99.90;;;;;;4945775;28;20513;-88
2022/01/09 05:34:21;;;;;;;1.03;0.80;;;4.10;99.90;;;;;;4943342;28;20212;-88
2022/01/09 05:36:46;;;;;;;1.30;0.47;;;4.20;99.90;;;;;;4942994;28;20203;-88
2022/01/09 05:39:12;;;;;;;1.43;0.70;;;4.20;99.90;;;;;;4945196;28;20199;-88
2022/01/09 05:41:40;;;;;;;1.07;0.70;;;4.10;99.90;;;;;;4947614;28;20211;-88
2022/01/09 05:44:06;;;;;;;0.60;0.60;;;4.20;99.90;;;;;;4940062;28;20208;-88
2022/01/09 05:46:32;;;;;;;1.50;0.77;;;4.20;99.90;;;;;;4946926;28;20209;-88
2022/01/09 05:48:57;;;;;;;0.60;0.60;;;4.20;99.90;;;;;;4951927;28;20196;-88
2022/01/09 05:51:23;;;;;;;1.83;0.83;;;4.30;99.90;;;;;;4942938;28;20196;-88
2022/01/09 05:53:49;;;;;;;1.23;1.13;;;4.20;99.90;;;;;;4950035;28;20212;-88
2022/01/09 05:56:15;;;;;;;1.10;0.60;;;4.30;99.90;;;;;;4950829;28;20204;-88
2022/01/09 05:58:40;;;;;;;0.60;0.60;;;4.20;99.90;;;;;;4973512;28;20239;-87
2022/01/09 06:01:07;;;;;;;0.73;0.60;;;4.30;99.90;;;;;;4972905;28;20184;-88
2022/01/09 06:03:33;;;;;;;1.20;1.10;;;4.30;99.90;;;;;;4980455;28;20203;-89
2022/01/09 06:05:59;;;;;;;1.03;0.93;;;4.30;99.90;;;;;;4979503;28;20266;-88
2022/01/09 06:08:25;;;;;;;1.47;1.10;;;4.20;99.90;;;;;;4979991;28;20210;-89
2022/01/09 06:10:51;;;;;;;3.03;0.80;;;4.20;99.90;;;;;;4983437;28;20191;-88
2022/01/09 06:13:17;;;;;;;2.20;1.40;;;4.20;99.90;;;;;;4980252;28;20208;-89
2022/01/09 06:15:42;;;;;;;1.87;1.17;;;4.20;99.90;;;;;;4976835;28;20199;-88
2022/01/09 06:18:08;;;;;;;1.83;0.97;;;4.10;99.90;;;;;;4955369;28;20197;-88
2022/01/09 06:20:34;;;;;;;4.60;1.30;;;4.20;99.90;;;;;;4948590;28;20802;-88
2022/01/09 06:23:00;;;;;;;3.67;1.50;;;4.30;99.90;;;;;;4966815;28;20214;-87
2022/01/09 06:25:25;;;;;;;1.97;1.10;;;4.30;99.90;;;;;;4976065;28;20223;-88
2022/01/09 06:27:51;;;;;;;3.50;1.60;;;4.30;99.90;;;;;;4992416;28;20194;-87
2022/01/09 06:30:17;;;;;;;3.13;1.37;;;4.20;99.90;;;;;;4985218;28;20191;-88
2022/01/09 06:32:43;;;;;;;1.40;1.17;;;4.20;99.90;;;;;;4969625;28;20298;-88
2022/01/09 06:35:10;;;;;;;5.57;1.57;;;4.20;99.90;;;;;;4964530;28;20310;-88
2022/01/09 06:37:36;;;;;;;2.87;1.60;;;4.20;99.90;;;;;;4954211;28;20222;-88
2022/01/09 06:40:03;;;;;;;2.73;1.40;;;4.30;99.90;;;;;;4945495;28;20192;-88
2022/01/09 06:42:29;;;;;;;2.63;2.00;;;4.30;99.90;;;;;;4950142;28;20680;-88
2022/01/09 06:44:54;;;;;;;3.70;1.50;;;4.30;99.90;;;;;;4953329;28;20251;-88
2022/01/09 06:47:20;;;;;;;3.93;1.87;;;4.30;99.90;;;;;;4946141;28;20207;-88
2022/01/09 06:49:46;;;;;;;3.87;1.83;;;4.30;99.90;;;;;;4946558;28;20591;-89
2022/01/09 06:52:12;;;;;;;5.83;1.87;;;4.30;99.90;;;;;;4951050;28;20202;-88
2022/01/09 06:54:38;;;;;;;5.37;1.80;;;4.40;99.90;;;;;;4948814;28;20227;-88
2022/01/09 06:57:04;;;;;;;3.13;1.93;;;4.40;99.90;;;;;;4943050;28;20576;-89
2022/01/09 06:59:29;;;;;;;5.93;1.87;;;4.30;99.90;;;;;;4949339;28;20192;-88
2022/01/09 07:01:55;;;;;;;4.33;1.90;;;4.30;99.90;;;;;;4968550;28;20227;-88
2022/01/09 07:04:20;;;;;;;3.83;1.93;;;4.30;99.90;;;;;;4955179;28;20223;-88
2022/01/09 07:06:46;;;;;;;7.33;2.30;;;4.30;99.90;;;;;;4945598;28;20187;-89
2022/01/09 07:09:12;;;;;;;3.50;1.70;;;4.40;99.90;;;;;;4949718;28;20659;-88
2022/01/09 07:11:37;;;;;;;6.67;2.20;;;4.40;99.90;;;;;;4944619;28;20210;-88
2022/01/09 07:14:03;;;;;;;5.90;2.20;;;4.40;99.90;;;;;;4949915;28;20213;-89
2022/01/09 07:16:29;;;;;;;7.43;2.03;;;4.40;99.90;;;;;;4944553;28;20239;-88
2022/01/09 07:18:55;;;;;;;4.60;1.87;;;4.40;99.90;;;;;;4947042;28;20810;-89
2022/01/09 07:21:21;;;;;;;3.17;1.67;;;4.40;99.90;;;;;;4947016;28;20211;-89
2022/01/09 07:23:46;;;;;;;8.10;1.90;;;4.50;99.90;;;;;;4942848;28;20228;-89
2022/01/09 07:26:12;;;;;;;4.97;2.20;;;4.50;99.90;;;;;;4948325;28;20227;-89
2022/01/09 07:28:38;;;;;;;5.47;1.90;;;4.40;99.90;;;;;;4947847;28;20226;-88
2022/01/09 07:31:03;;;;;;;5.80;2.10;;;4.40;99.90;;;;;;4944413;29;20192;-88
2022/01/09 07:33:30;;;;;;;5.93;2.00;;;4.30;99.90;;;;;;4946506;28;20200;-88
2022/01/09 07:35:56;;;;;;;7.90;2.40;;;4.40;99.90;;;;;;4943976;28;20204;-88
2022/01/09 07:38:22;;;;;;;9.37;1.93;;;4.30;99.90;;;;;;4944539;29;20246;-88
2022/01/09 07:40:49;;;;;;;4.73;1.80;;;4.20;99.90;;;;;;4944717;28;20200;-88
2022/01/09 07:43:15;;;;;;;4.37;1.80;;;4.30;99.90;;;;;;4947346;28;20206;-88
2022/01/09 07:45:40;;;;;;;4.97;2.33;;;4.20;99.90;;;;;;4943448;29;20231;-88
2022/01/09 07:48:06;;;;;;;4.20;1.97;;;4.30;99.90;;;;;;4946490;28;20746;-88
2022/01/09 07:50:32;;;;;;;5.10;1.83;;;4.40;99.90;;;;;;4945790;28;20319;-88
2022/01/09 07:52:59;;;;;;;4.47;2.10;;;4.40;99.90;;;;;;4946470;28;20210;-89
2022/01/09 07:55:25;;;;;;;6.07;3.00;;;4.30;99.90;;;;;;4938752;28;20216;-88
2022/01/09 07:57:51;;;;;;;5.50;1.87;;;4.30;99.90;;;;;;4946972;28;20351;-89
2022/01/09 08:00:19;;;;;;;6.00;2.20;;;4.40;99.90;;;;;;4948598;28;20207;-89
2022/01/09 08:02:45;;;;;;;5.93;2.07;;;4.40;99.90;;;;;;4943502;28;20197;-89
2022/01/09 08:05:13;;;;;;;6.23;2.37;;;4.40;99.90;;;;;;4947602;28;20257;-88
2022/01/09 08:07:39;;;;;;;7.03;2.13;;;4.40;99.90;;;;;;4945712;28;20196;-89
2022/01/09 08:10:05;;;;;;;6.90;2.40;;;4.30;99.90;;;;;;4947260;28;20198;-88
2022/01/09 08:12:36;;;;;;;4.20;1.90;;;4.30;99.90;;;;;;4944359;28;20201;-88
2022/01/09 08:15:03;;;;;;;4.70;2.37;;;4.40;99.90;;;;;;4948436;28;20247;-88
2022/01/09 08:17:29;;;;;;;5.20;1.97;;;4.30;99.90;;;;;;4949997;28;20755;-88
2022/01/09 08:19:54;;;;;;;6.27;2.20;;;4.30;99.90;;;;;;4944318;28;20283;-88
2022/01/09 08:22:20;;;;;;;6.13;3.00;;;4.30;99.90;;;;;;4951482;28;20239;-88
2022/01/09 08:24:47;;;;;;;6.60;2.10;;;4.30;99.90;;;;;;4949878;28;20230;-88
2022/01/09 08:27:13;;;;;;;4.70;2.20;;;4.30;99.90;;;;;;4948391;29;20194;-87
2022/01/09 08:29:38;;;;;;;6.57;2.33;;;4.40;99.90;;;;;;4947736;28;20208;-89
2022/01/09 08:32:06;;;;;;;8.97;2.00;;;4.40;99.90;;;;;;4952156;28;21677;-88
2022/01/09 08:34:33;;;;;;;6.83;2.77;;;4.30;99.90;;;;;;4946363;28;20274;-88
2022/01/09 08:37:00;;;;;;;5.47;2.07;;;4.40;99.90;;;;;;4946366;29;20188;-88
2022/01/09 08:39:25;;;;;;;6.83;2.50;;;4.40;99.90;;;;;;4964555;28;20200;-88
2022/01/09 08:41:51;;;;;;;6.93;2.10;;;4.30;99.90;;;;;;4950171;28;20553;-89
2022/01/09 08:44:17;;;;;;;4.80;1.80;;;4.30;99.90;;;;;;4949983;28;20235;-88
2022/01/09 08:46:42;;;;;;;5.37;2.37;;;4.30;99.90;;;;;;4949203;28;20224;-88
2022/01/09 08:49:09;;;;;;;3.17;1.80;;;4.30;99.90;;;;;;4950040;28;20227;-88
2022/01/09 08:51:35;;;;;;;4.50;1.80;;;4.30;99.90;;;;;;4942369;29;20184;-88
2022/01/09 08:54:01;;;;;;;4.93;2.17;;;4.20;99.90;;;;;;4945673;28;20278;-89
2022/01/09 08:56:28;;;;;;;6.47;3.10;;;4.10;99.90;;;;;;4950447;28;20852;-88
2022/01/09 08:58:57;;;;;;;8.07;2.40;;;4.20;99.90;;;;;;4946219;29;20204;-88
2022/01/09 09:01:23;;;;;;;6.80;2.20;;;4.10;99.90;;;;;;4954418;28;20199;-89
2022/01/09 09:03:49;;;;;;;6.37;2.37;;;4.00;99.90;;;;;;4952421;28;20230;-88
2022/01/09 09:06:15;;;;;;;8.47;2.47;;;3.90;99.90;;;;;;4953652;28;20239;-89
2022/01/09 09:08:42;;;;;;;5.93;2.50;;;4.00;99.90;;;;;;4952208;28;20187;-87
2022/01/09 09:11:10;;;;;;;6.70;2.40;;;4.00;99.90;;;;;;4968286;28;20197;-87
2022/01/09 09:13:37;;;;;;;9.63;3.07;;;3.90;99.90;;;;;;4951352;28;20196;-86
2022/01/09 09:16:05;;;;;;;8.77;3.03;;;3.90;99.90;;;;;;4949973;29;20735;-87
2022/01/09 09:18:31;;;;;;;7.23;3.17;;;4.00;99.90;;;;;;4952864;28;20231;-88
2022/01/09 09:20:57;;;;;;;7.43;2.57;;;3.90;99.90;;;;;;4952375;28;20282;-87
2022/01/09 09:23:23;;;;;;;7.80;2.77;;;4.00;99.90;;;;;;4959350;28;20203;-87
2022/01/09 09:25:50;;;;;;;7.70;2.57;;;4.10;99.90;;;;;;4959121;28;20214;-87
2022/01/09 09:28:16;;;;;;;10.53;2.50;;;4.00;99.90;;;;;;4958810;28;20184;-87
2022/01/09 09:30:42;;;;;;;7.57;2.60;;;4.00;99.90;;;;;;4953409;28;20191;-87
2022/01/09 09:33:08;;;;;;;4.30;1.97;;;4.10;99.90;;;;;;4955486;28;20203;-87
2022/01/09 09:35:34;;;;;;;4.67;2.17;;;4.00;99.90;;;;;;4973283;28;20670;-87
2022/01/09 09:38:02;;;;;;;6.10;2.17;;;4.00;99.90;;;;;;4960123;28;20191;-87
2022/01/09 09:40:28;;;;;;;7.37;2.00;;;4.00;99.90;;;;;;4957076;28;20196;-87
2022/01/09 09:42:55;;;;;;;4.43;1.93;;;3.90;99.90;;;;;;4956716;28;20267;-87
2022/01/09 09:45:23;;;;;;;2.83;1.60;;;4.00;99.90;;;;;;4962257;28;20223;-87
2022/01/09 09:47:50;;;;;;;4.70;1.90;;;4.10;99.90;;;;;;4976370;28;20227;-87
2022/01/09 09:50:18;;;;;;;3.70;1.83;;;4.10;99.90;;;;;;4969991;28;20242;-86
2022/01/09 09:52:45;;;;;;;4.97;1.60;;;4.10;99.90;;;;;;4962562;28;20200;-86
2022/01/09 09:55:13;;;;;;;3.13;1.97;;;4.20;99.90;;;;;;4956634;28;20223;-86
2022/01/09 09:57:39;;;;;;;3.30;1.80;;;4.10;99.90;;;;;;4957954;28;20212;-87
2022/01/09 10:00:14;;;;;;;6.93;1.90;;;4.10;99.90;;;;;;4954482;28;20200;-87
2022/01/09 10:03:01;;;;;;;4.53;1.73;;;4.10;99.90;;;;;;4952007;28;20191;-86
2022/01/09 10:05:34;;;;;;;6.37;2.37;;;4.10;99.90;;;;;;4956480;28;20231;-88
2022/01/09 10:08:08;;;;;;;7.40;2.33;;;4.10;99.90;;;;;;4953938;29;20211;-87
2022/01/09 10:10:35;;;;;;;7.53;2.37;;;4.10;99.90;;;;;;4962276;28;20613;-87
2022/01/09 10:13:19;;;;;;;2.50;1.90;;;4.20;99.90;;;;;;4961937;28;20223;-88
2022/01/09 10:15:52;;;;;;;5.00;2.00;;;4.20;99.90;;;;;;4956706;28;20211;-87
2022/01/09 10:18:40;;;;;;;5.27;2.00;;;4.20;99.90;;;;;;4964099;29;20192;-88
2022/01/09 10:21:17;;;;;;;4.53;2.70;;;4.30;99.90;;;;;;4957152;28;20287;-87
2022/01/09 10:23:59;;;;;;;5.53;2.30;;;4.50;99.90;;;;;;4959928;28;20198;-87
2022/01/09 10:26:25;;;;;;;5.83;2.50;;;4.40;99.90;;;;;;4953043;28;20246;-86
2022/01/09 10:28:51;;;;;;;8.17;2.50;;;4.40;99.90;;;;;;4957730;28;20191;-87
2022/01/09 10:31:19;;;;;;;4.60;2.63;;;4.50;99.90;;;;;;4959606;28;20195;-87
2022/01/09 10:34:06;;;;;;;7.73;2.30;;;4.60;99.90;;;;;;4959123;28;20215;-87
2022/01/09 10:36:34;;;;;;;6.40;2.53;;;4.50;99.90;;;;;;4959421;28;20191;-87
2022/01/09 10:39:10;;;;;;;7.97;2.57;;;4.60;99.90;;;;;;4958680;29;20206;-86
2022/01/09 10:41:56;;;;;;;4.20;2.80;;;4.70;99.90;;;;;;4960673;28;20187;-87
2022/01/09 10:44:30;;;;;;;6.10;2.30;;;4.60;99.90;;;;;;4955478;28;20255;-87
2022/01/09 10:47:03;;;;;;;6.87;2.50;;;4.80;99.90;;;;;;4954374;28;20283;-87
2022/01/09 10:49:38;;;;;;;8.83;3.53;;;4.90;99.90;;;;;;4953055;28;20195;-87
2022/01/09 10:52:25;;;;;;;3.87;1.90;;;4.90;99.90;;;;;;4956215;28;20219;-87
2022/01/09 10:54:53;;;;;;;6.53;3.20;;;4.90;99.90;;;;;;4953825;28;20220;-87
2022/01/09 10:57:24;;;;;;;4.27;2.10;;;4.90;99.90;;;;;;4954064;28;20214;-86
2022/01/09 10:59:51;;;;;;;10.40;4.70;;;5.00;99.90;;;;;;4955988;29;20207;-87
2022/01/09 11:02:17;;;;;;;6.00;2.33;;;4.90;99.90;;;;;;4959084;28;20207;-87
2022/01/09 11:04:46;;;;;;;5.33;2.60;;;4.90;99.90;;;;;;4954324;28;20282;-87
2022/01/09 11:07:12;;;;;;;5.40;2.60;;;4.80;99.90;;;;;;4971573;28;20560;-88
2022/01/09 11:09:41;;;;;;;5.13;2.30;;;4.90;99.90;;;;;;4956788;29;20744;-87
2022/01/09 11:12:08;;;;;;;6.43;2.40;;;4.90;99.90;;;;;;4958266;28;20252;-87
2022/01/09 11:14:40;;;;;;;6.60;2.50;;;4.90;99.90;;;;;;4957477;28;20266;-87
2022/01/09 11:17:08;;;;;;;8.30;2.90;;;5.00;99.90;;;;;;4951544;28;20192;-88
2022/01/09 11:19:34;;;;;;;4.80;2.13;;;5.10;99.90;;;;;;4959013;28;20192;-88
2022/01/09 11:22:03;;;;;;;4.93;2.13;;;5.10;99.90;;;;;;4957214;28;20787;-88
2022/01/09 11:24:51;;;;;;;3.80;2.10;;;5.20;99.90;;;;;;4956803;28;20282;-88
2022/01/09 11:27:31;;;;;;;4.27;2.30;;;5.20;99.90;;;;;;4960226;28;20180;-88
2022/01/09 11:30:17;;;;;;;6.23;2.77;;;5.20;99.90;;;;;;4957124;28;20191;-88
2022/01/09 11:32:52;;;;;;;3.53;2.20;;;5.20;99.90;;;;;;4957486;28;20183;-88
2022/01/09 11:35:38;;;;;;;6.70;3.63;;;5.40;99.90;;;;;;4953480;28;20246;-88
2022/01/09 11:38:18;;;;;;;7.27;2.53;;;5.40;99.90;;;;;;4959405;28;20271;-88
2022/01/09 11:40:44;;;;;;;4.73;2.80;;;5.80;99.90;;;;;;4959319;28;20273;-88
2022/01/09 11:43:17;;;;;;;4.97;2.40;;;6.00;99.90;;;;;;4959866;28;20191;-88
2022/01/09 11:45:59;;;;;;;8.77;2.80;;;6.00;99.80;;;;;;4959431;28;20234;-88
2022/01/09 11:49:01;;;;;;;5.03;2.50;;;5.90;98.90;;;;;;4957345;28;20208;-88
2022/01/09 11:51:34;;;;;;;5.63;2.50;;;5.80;99.80;;;;;;4978480;28;20190;-88
2022/01/09 11:54:15;;;;;;;5.83;1.97;;;5.60;99.90;;;;;;4959712;28;20215;-87
2022/01/09 11:57:08;;;;;;;5.67;2.20;;;5.80;99.90;;;;;;4959523;28;20199;-87
2022/01/09 11:59:51;;;;;;;4.67;2.20;;;5.70;99.90;;;;;;4959799;28;20207;-86
2022/01/09 12:02:16;;;;;;;4.40;1.93;;;5.50;99.90;;;;;;4959329;29;20192;-88
2022/01/09 12:04:48;;;;;;;5.70;2.27;;;5.50;99.90;;;;;;4958572;28;20231;-89
2022/01/09 12:07:19;;;;;;;5.60;2.20;;;5.50;99.90;;;;;;4956641;28;20192;-88
2022/01/09 12:09:51;;;;;;;8.73;2.23;;;5.60;99.90;;;;;;4954304;28;20275;-88
2022/01/09 12:12:18;;;;;;;4.20;2.20;;;5.60;99.90;;;;;;4956586;28;20187;-88
2022/01/09 12:15:05;;;;;;;3.77;2.27;;;5.80;99.90;;;;;;4960129;28;20218;-88
2022/01/09 12:17:39;;;;;;;5.73;3.07;;;5.90;99.90;;;;;;4954987;28;20192;-88
2022/01/09 12:20:27;;;;;;;4.73;2.20;;;5.90;99.90;;;;;;4954609;29;20190;-88
2022/01/09 12:23:01;;;;;;;4.60;2.40;;;5.90;99.90;;;;;;4949071;28;20192;-88
2022/01/09 12:25:33;;;;;;;5.93;2.67;;;5.70;99.90;;;;;;4956718;28;20218;-88
2022/01/09 12:28:23;;;;;;;3.30;2.40;;;5.60;99.90;;;;;;4955418;28;20192;-88
2022/01/09 12:30:56;;;;;;;5.43;2.57;;;5.60;99.90;;;;;;4961315;28;20191;-88
2022/01/09 12:33:24;;;;;;;3.90;1.97;;;5.60;99.90;;;;;;4969486;28;20184;-88
2022/01/09 12:36:01;;;;;;;4.23;2.10;;;5.60;99.90;;;;;;4959317;28;20203;-88
2022/01/09 12:38:34;;;;;;;4.83;2.43;;;5.60;99.90;;;;;;4957068;28;20187;-88
2022/01/09 12:41:17;;;;;;;4.27;2.20;;;5.70;99.00;;;;;;4954536;28;20628;-87
2022/01/09 12:43:43;;;;;;;5.63;2.10;;;5.70;99.70;;;;;;4957137;28;20714;-88
2022/01/09 12:46:14;;;;;;;5.63;2.00;;;5.80;98.30;;;;;;4954785;28;20219;-88
2022/01/09 12:48:40;;;;;;;4.17;2.43;;;5.80;98.40;;;;;;4952953;28;20199;-88
2022/01/09 12:51:14;;;;;;;5.57;2.23;;;5.90;99.70;;;;;;4952165;28;20192;-87
2022/01/09 12:53:41;;;;;;;5.40;3.87;;;5.60;99.20;;;;;;4949436;28;20214;-88
2022/01/09 12:56:19;;;;;;;4.40;2.37;;;5.60;98.60;;;;;;4956797;28;20564;-89
2022/01/09 12:58:48;;;;;;;4.57;2.40;;;5.70;97.10;;;;;;4968959;28;20206;-90
2022/01/09 13:01:31;;;;;;;9.43;6.90;;;5.70;99.10;;;;;;4986612;28;20234;-90
2022/01/09 13:04:06;;;;;;;7.70;6.20;;;5.70;99.10;;;;;;4970391;28;20221;-89
2022/01/09 13:06:37;;;;;;;10.43;3.60;;;5.70;98.20;;;;;;4969509;28;20736;-89